This is the latest recevied weather packets stored in our database for station/object EA4URC-13. If no packets are shown the sender has not sent any weather packets the latest 10 day(s).
| Time | Temp. | Humidity | Pressure | Rain* | Wind** | Luminosity | Snow |
|---|---|---|---|---|---|---|---|
| 1777503551 | 11.67° C | 73% | 1006.7 hPa | - | - | - | - |
| 1777503027 | 12.22° C | 70% | 1006.2 hPa | - | - | - | - |
| 1777502651 | 12.22° C | 70% | 1006.2 hPa | - | - | - | - |
| 1777501751 | 11.67° C | 72% | 1006.7 hPa | - | - | - | - |
| 1777500851 | 11.67° C | 72% | 1006.4 hPa | - | - | - | - |
| 1777499951 | 11.67° C | 70% | 1006.5 hPa | - | - | - | - |
| 1777499051 | 12.22° C | 68% | 1006.2 hPa | - | - | - | - |
| 1777498138 | 11.11° C | 71% | 1006.3 hPa | - | - | - | - |
| 1777497238 | 11.67° C | 70% | 1006 hPa | - | - | - | - |
| 1777496325 | 12.78° C | 67% | 1005.3 hPa | - | - | - | - |
| 1777495425 | 12.78° C | 69% | 1004.9 hPa | - | - | - | - |
| 1777494513 | 11.67° C | 71% | 1005.3 hPa | - | - | - | - |
| 1777493613 | 12.22° C | 67% | 1004.9 hPa | - | - | - | - |
| 1777492700 | 12.78° C | 67% | 1004.3 hPa | - | - | - | - |
| 1777491800 | 11.67° C | 71% | 1004.6 hPa | - | - | - | - |
| 1777490878 | 12.22° C | 69% | 1004.3 hPa | - | - | - | - |
| 1777489978 | 12.78° C | 65% | 1003.8 hPa | - | - | - | - |
| 1777489073 | 15° C | 58% | 1002.6 hPa | - | - | - | - |
| 1777488179 | 15.56° C | 55% | 1001.8 hPa | - | - | - | - |
| 1777487262 | 15.56° C | 55% | 1001.6 hPa | - | - | - | - |
| 1777486360 | 15.56° C | 56% | 1001.3 hPa | - | - | - | - |
| 1777485448 | 16.11° C | 54% | 1001.1 hPa | - | - | - | - |
| 1777483709 | 16.11° C | 53% | 1001.1 hPa | - | - | - | - |
| 1777482809 | 17.22° C | 51% | 1000.4 hPa | - | - | - | - |
| 1777481916 | 17.78° C | 50% | 1000.4 hPa | - | - | - | - |
* Rain since midnight (hover to see other rain measurements)
** Current wind speed in m/s (hover to see current wind gust speed)